sensor_id;sensor_type;location;lat;lon;timestamp;P1;durP1;ratioP1;P2;durP2;ratioP2
16878;SDS011;8556;52.218;9.884;2023-11-21T00:00:51;18.60;;;9.03;;
16878;SDS011;8556;52.218;9.884;2023-11-21T00:03:18;19.93;;;9.83;;
16878;SDS011;8556;52.218;9.884;2023-11-21T00:05:46;23.33;;;10.50;;
16878;SDS011;8556;52.218;9.884;2023-11-21T00:08:13;18.33;;;8.93;;
16878;SDS011;8556;52.218;9.884;2023-11-21T00:10:39;23.13;;;10.50;;
16878;SDS011;8556;52.218;9.884;2023-11-21T00:13:06;20.30;;;10.57;;
16878;SDS011;8556;52.218;9.884;2023-11-21T00:15:33;21.13;;;10.33;;
16878;SDS011;8556;52.218;9.884;2023-11-21T00:18:00;18.27;;;10.30;;
16878;SDS011;8556;52.218;9.884;2023-11-21T00:20:27;23.53;;;10.57;;
16878;SDS011;8556;52.218;9.884;2023-11-21T00:22:55;18.87;;;10.33;;
16878;SDS011;8556;52.218;9.884;2023-11-21T00:25:22;21.80;;;10.83;;
16878;SDS011;8556;52.218;9.884;2023-11-21T00:27:50;20.83;;;10.93;;
16878;SDS011;8556;52.218;9.884;2023-11-21T00:30:16;23.27;;;12.63;;
16878;SDS011;8556;52.218;9.884;2023-11-21T00:32:45;21.90;;;11.07;;
16878;SDS011;8556;52.218;9.884;2023-11-21T00:35:12;23.27;;;11.27;;
16878;SDS011;8556;52.218;9.884;2023-11-21T00:37:38;26.43;;;12.53;;
16878;SDS011;8556;52.218;9.884;2023-11-21T00:40:07;23.87;;;12.73;;
16878;SDS011;8556;52.218;9.884;2023-11-21T00:42:35;22.73;;;12.43;;
16878;SDS011;8556;52.218;9.884;2023-11-21T00:45:02;27.80;;;12.10;;
16878;SDS011;8556;52.218;9.884;2023-11-21T00:47:29;23.47;;;12.13;;
16878;SDS011;8556;52.218;9.884;2023-11-21T00:49:56;24.10;;;10.50;;
16878;SDS011;8556;52.218;9.884;2023-11-21T00:52:23;27.80;;;13.33;;
16878;SDS011;8556;52.218;9.884;2023-11-21T00:54:50;25.03;;;12.33;;
16878;SDS011;8556;52.218;9.884;2023-11-21T00:57:18;26.57;;;12.43;;
16878;SDS011;8556;52.218;9.884;2023-11-21T00:59:45;25.77;;;11.97;;
16878;SDS011;8556;52.218;9.884;2023-11-21T01:02:11;23.87;;;12.20;;
16878;SDS011;8556;52.218;9.884;2023-11-21T01:04:38;25.90;;;11.80;;
16878;SDS011;8556;52.218;9.884;2023-11-21T01:07:05;25.63;;;12.30;;
16878;SDS011;8556;52.218;9.884;2023-11-21T01:09:32;23.37;;;11.40;;
16878;SDS011;8556;52.218;9.884;2023-11-21T01:11:59;24.03;;;12.53;;
16878;SDS011;8556;52.218;9.884;2023-11-21T01:14:27;26.63;;;11.70;;
16878;SDS011;8556;52.218;9.884;2023-11-21T01:16:54;24.27;;;10.70;;
16878;SDS011;8556;52.218;9.884;2023-11-21T01:19:20;22.70;;;11.77;;
16878;SDS011;8556;52.218;9.884;2023-11-21T01:21:47;20.47;;;10.93;;
16878;SDS011;8556;52.218;9.884;2023-11-21T01:24:14;21.87;;;11.57;;
16878;SDS011;8556;52.218;9.884;2023-11-21T01:26:41;26.40;;;13.50;;
16878;SDS011;8556;52.218;9.884;2023-11-21T01:29:08;25.17;;;11.77;;
16878;SDS011;8556;52.218;9.884;2023-11-21T01:31:36;31.00;;;12.27;;
16878;SDS011;8556;52.218;9.884;2023-11-21T01:34:03;22.50;;;11.87;;
16878;SDS011;8556;52.218;9.884;2023-11-21T01:36:30;26.80;;;12.03;;
16878;SDS011;8556;52.218;9.884;2023-11-21T01:38:58;24.47;;;11.67;;
16878;SDS011;8556;52.218;9.884;2023-11-21T01:41:25;24.63;;;12.07;;
16878;SDS011;8556;52.218;9.884;2023-11-21T01:43:53;27.97;;;12.03;;
16878;SDS011;8556;52.218;9.884;2023-11-21T01:46:20;23.60;;;12.70;;
16878;SDS011;8556;52.218;9.884;2023-11-21T01:48:49;23.40;;;12.33;;
16878;SDS011;8556;52.218;9.884;2023-11-21T01:51:16;24.20;;;12.60;;
16878;SDS011;8556;52.218;9.884;2023-11-21T01:53:44;22.70;;;12.47;;
16878;SDS011;8556;52.218;9.884;2023-11-21T01:56:12;24.43;;;12.60;;
16878;SDS011;8556;52.218;9.884;2023-11-21T01:58:39;22.87;;;12.57;;
16878;SDS011;8556;52.218;9.884;2023-11-21T02:01:06;24.53;;;12.17;;
16878;SDS011;8556;52.218;9.884;2023-11-21T02:03:33;23.97;;;11.93;;
16878;SDS011;8556;52.218;9.884;2023-11-21T02:06:02;28.83;;;12.60;;
16878;SDS011;8556;52.218;9.884;2023-11-21T02:08:29;23.27;;;12.40;;
16878;SDS011;8556;52.218;9.884;2023-11-21T02:10:56;24.83;;;12.20;;
16878;SDS011;8556;52.218;9.884;2023-11-21T02:13:23;24.17;;;13.27;;
16878;SDS011;8556;52.218;9.884;2023-11-21T02:15:50;22.43;;;11.93;;
16878;SDS011;8556;52.218;9.884;2023-11-21T02:18:19;26.27;;;12.33;;
16878;SDS011;8556;52.218;9.884;2023-11-21T02:20:47;26.33;;;13.00;;
16878;SDS011;8556;52.218;9.884;2023-11-21T02:23:15;21.47;;;11.63;;
16878;SDS011;8556;52.218;9.884;2023-11-21T02:25:43;25.43;;;11.80;;
16878;SDS011;8556;52.218;9.884;2023-11-21T02:28:09;22.17;;;11.20;;
16878;SDS011;8556;52.218;9.884;2023-11-21T02:30:37;22.53;;;11.33;;
16878;SDS011;8556;52.218;9.884;2023-11-21T02:33:05;25.40;;;11.90;;
16878;SDS011;8556;52.218;9.884;2023-11-21T02:35:32;20.00;;;11.07;;
16878;SDS011;8556;52.218;9.884;2023-11-21T02:38:00;24.60;;;12.10;;
16878;SDS011;8556;52.218;9.884;2023-11-21T02:40:28;23.63;;;11.97;;
16878;SDS011;8556;52.218;9.884;2023-11-21T02:42:55;21.07;;;11.03;;
16878;SDS011;8556;52.218;9.884;2023-11-21T02:45:24;23.87;;;11.77;;
16878;SDS011;8556;52.218;9.884;2023-11-21T02:47:51;22.23;;;11.40;;
16878;SDS011;8556;52.218;9.884;2023-11-21T02:50:21;25.07;;;12.33;;
16878;SDS011;8556;52.218;9.884;2023-11-21T02:52:48;23.07;;;11.47;;
16878;SDS011;8556;52.218;9.884;2023-11-21T02:55:17;25.43;;;13.13;;
16878;SDS011;8556;52.218;9.884;2023-11-21T02:57:45;28.50;;;13.33;;
16878;SDS011;8556;52.218;9.884;2023-11-21T03:00:12;28.53;;;14.73;;
16878;SDS011;8556;52.218;9.884;2023-11-21T03:02:40;28.43;;;13.67;;
16878;SDS011;8556;52.218;9.884;2023-11-21T03:05:07;27.20;;;13.13;;
16878;SDS011;8556;52.218;9.884;2023-11-21T03:07:35;26.17;;;12.97;;
16878;SDS011;8556;52.218;9.884;2023-11-21T03:10:02;33.50;;;14.73;;
16878;SDS011;8556;52.218;9.884;2023-11-21T03:12:30;31.27;;;14.37;;
16878;SDS011;8556;52.218;9.884;2023-11-21T03:14:58;26.00;;;13.77;;
16878;SDS011;8556;52.218;9.884;2023-11-21T03:17:26;25.17;;;13.50;;
16878;SDS011;8556;52.218;9.884;2023-11-21T03:19:54;28.97;;;14.33;;
16878;SDS011;8556;52.218;9.884;2023-11-21T03:22:22;27.47;;;13.30;;
16878;SDS011;8556;52.218;9.884;2023-11-21T03:24:49;30.50;;;14.17;;
16878;SDS011;8556;52.218;9.884;2023-11-21T03:27:16;25.00;;;12.87;;
16878;SDS011;8556;52.218;9.884;2023-11-21T03:29:43;30.03;;;14.70;;
16878;SDS011;8556;52.218;9.884;2023-11-21T03:32:11;27.73;;;13.57;;
16878;SDS011;8556;52.218;9.884;2023-11-21T03:34:52;32.80;;;13.23;;
16878;SDS011;8556;52.218;9.884;2023-11-21T03:37:21;27.60;;;13.40;;
16878;SDS011;8556;52.218;9.884;2023-11-21T03:39:48;28.43;;;15.03;;
16878;SDS011;8556;52.218;9.884;2023-11-21T03:42:15;28.43;;;14.17;;
16878;SDS011;8556;52.218;9.884;2023-11-21T03:44:42;28.10;;;15.40;;
16878;SDS011;8556;52.218;9.884;2023-11-21T03:47:13;32.57;;;15.70;;
16878;SDS011;8556;52.218;9.884;2023-11-21T03:49:40;29.37;;;14.70;;
16878;SDS011;8556;52.218;9.884;2023-11-21T03:52:07;32.33;;;14.97;;
16878;SDS011;8556;52.218;9.884;2023-11-21T03:54:35;32.57;;;15.00;;
16878;SDS011;8556;52.218;9.884;2023-11-21T03:57:02;37.50;;;16.33;;
16878;SDS011;8556;52.218;9.884;2023-11-21T03:59:29;33.73;;;16.47;;
16878;SDS011;8556;52.218;9.884;2023-11-21T04:01:56;28.40;;;15.23;;
16878;SDS011;8556;52.218;9.884;2023-11-21T04:04:24;30.97;;;15.00;;
16878;SDS011;8556;52.218;9.884;2023-11-21T04:06:51;29.07;;;14.97;;
16878;SDS011;8556;52.218;9.884;2023-11-21T04:09:18;27.63;;;14.37;;
16878;SDS011;8556;52.218;9.884;2023-11-21T04:11:45;32.47;;;15.37;;
16878;SDS011;8556;52.218;9.884;2023-11-21T04:14:12;30.23;;;15.63;;
16878;SDS011;8556;52.218;9.884;2023-11-21T04:16:40;29.40;;;15.73;;
16878;SDS011;8556;52.218;9.884;2023-11-21T04:19:07;28.77;;;15.03;;
16878;SDS011;8556;52.218;9.884;2023-11-21T04:21:36;32.53;;;18.93;;
16878;SDS011;8556;52.218;9.884;2023-11-21T04:24:03;39.23;;;18.57;;
16878;SDS011;8556;52.218;9.884;2023-11-21T04:26:31;35.00;;;16.03;;
16878;SDS011;8556;52.218;9.884;2023-11-21T04:28:58;35.77;;;17.13;;
16878;SDS011;8556;52.218;9.884;2023-11-21T04:31:25;33.70;;;15.73;;
16878;SDS011;8556;52.218;9.884;2023-11-21T04:33:51;33.60;;;17.73;;
16878;SDS011;8556;52.218;9.884;2023-11-21T04:36:18;33.43;;;16.00;;
16878;SDS011;8556;52.218;9.884;2023-11-21T04:38:47;31.63;;;15.60;;
16878;SDS011;8556;52.218;9.884;2023-11-21T04:41:14;35.20;;;16.00;;
16878;SDS011;8556;52.218;9.884;2023-11-21T04:43:40;37.57;;;19.03;;
16878;SDS011;8556;52.218;9.884;2023-11-21T04:46:08;37.47;;;18.67;;
16878;SDS011;8556;52.218;9.884;2023-11-21T04:48:35;40.47;;;19.60;;
16878;SDS011;8556;52.218;9.884;2023-11-21T04:51:02;41.17;;;19.27;;
16878;SDS011;8556;52.218;9.884;2023-11-21T04:53:30;43.70;;;19.03;;
16878;SDS011;8556;52.218;9.884;2023-11-21T04:55:58;36.90;;;19.03;;
16878;SDS011;8556;52.218;9.884;2023-11-21T04:58:25;37.47;;;18.17;;
16878;SDS011;8556;52.218;9.884;2023-11-21T05:00:52;33.67;;;15.13;;
16878;SDS011;8556;52.218;9.884;2023-11-21T05:03:18;40.67;;;18.83;;
16878;SDS011;8556;52.218;9.884;2023-11-21T05:05:45;38.43;;;18.07;;
16878;SDS011;8556;52.218;9.884;2023-11-21T05:08:12;38.90;;;17.53;;
16878;SDS011;8556;52.218;9.884;2023-11-21T05:10:39;34.37;;;17.10;;
16878;SDS011;8556;52.218;9.884;2023-11-21T05:13:07;38.50;;;18.03;;
16878;SDS011;8556;52.218;9.884;2023-11-21T05:15:35;39.17;;;17.00;;
16878;SDS011;8556;52.218;9.884;2023-11-21T05:18:02;38.77;;;18.60;;
16878;SDS011;8556;52.218;9.884;2023-11-21T05:20:30;36.60;;;16.23;;
16878;SDS011;8556;52.218;9.884;2023-11-21T05:22:58;38.17;;;16.80;;
16878;SDS011;8556;52.218;9.884;2023-11-21T05:25:25;39.03;;;18.03;;
16878;SDS011;8556;52.218;9.884;2023-11-21T05:27:51;35.50;;;17.30;;
16878;SDS011;8556;52.218;9.884;2023-11-21T05:30:21;40.43;;;17.70;;
16878;SDS011;8556;52.218;9.884;2023-11-21T05:32:48;41.00;;;17.57;;
16878;SDS011;8556;52.218;9.884;2023-11-21T05:35:15;33.67;;;16.20;;
16878;SDS011;8556;52.218;9.884;2023-11-21T05:37:43;36.80;;;16.67;;
16878;SDS011;8556;52.218;9.884;2023-11-21T05:40:10;35.87;;;15.77;;
16878;SDS011;8556;52.218;9.884;2023-11-21T05:42:38;37.93;;;15.97;;
16878;SDS011;8556;52.218;9.884;2023-11-21T05:45:06;35.20;;;15.33;;
16878;SDS011;8556;52.218;9.884;2023-11-21T05:47:38;33.13;;;15.97;;
16878;SDS011;8556;52.218;9.884;2023-11-21T05:50:06;35.37;;;15.70;;
16878;SDS011;8556;52.218;9.884;2023-11-21T05:52:37;39.57;;;17.23;;
16878;SDS011;8556;52.218;9.884;2023-11-21T05:55:04;36.40;;;17.33;;
16878;SDS011;8556;52.218;9.884;2023-11-21T05:57:32;31.57;;;16.60;;
16878;SDS011;8556;52.218;9.884;2023-11-21T06:00:01;35.83;;;16.07;;
16878;SDS011;8556;52.218;9.884;2023-11-21T06:02:37;36.50;;;16.90;;
16878;SDS011;8556;52.218;9.884;2023-11-21T06:05:04;31.77;;;15.53;;
16878;SDS011;8556;52.218;9.884;2023-11-21T06:07:32;31.33;;;16.17;;
16878;SDS011;8556;52.218;9.884;2023-11-21T06:09:59;32.83;;;16.07;;
16878;SDS011;8556;52.218;9.884;2023-11-21T06:12:27;34.33;;;16.27;;
16878;SDS011;8556;52.218;9.884;2023-11-21T06:14:54;30.53;;;16.07;;
16878;SDS011;8556;52.218;9.884;2023-11-21T06:17:21;32.83;;;15.37;;
16878;SDS011;8556;52.218;9.884;2023-11-21T06:19:51;33.97;;;17.10;;
16878;SDS011;8556;52.218;9.884;2023-11-21T06:22:19;32.07;;;16.47;;
16878;SDS011;8556;52.218;9.884;2023-11-21T06:24:46;30.30;;;15.10;;
16878;SDS011;8556;52.218;9.884;2023-11-21T06:27:13;34.00;;;15.73;;
16878;SDS011;8556;52.218;9.884;2023-11-21T06:29:41;35.00;;;15.83;;
16878;SDS011;8556;52.218;9.884;2023-11-21T06:32:08;35.33;;;17.33;;
16878;SDS011;8556;52.218;9.884;2023-11-21T06:34:35;32.73;;;15.77;;
16878;SDS011;8556;52.218;9.884;2023-11-21T06:37:04;31.60;;;15.87;;
16878;SDS011;8556;52.218;9.884;2023-11-21T06:39:31;30.77;;;15.43;;
16878;SDS011;8556;52.218;9.884;2023-11-21T06:41:57;33.40;;;15.63;;
16878;SDS011;8556;52.218;9.884;2023-11-21T06:44:25;32.77;;;15.53;;
16878;SDS011;8556;52.218;9.884;2023-11-21T06:46:53;33.90;;;15.87;;
16878;SDS011;8556;52.218;9.884;2023-11-21T06:49:19;39.53;;;17.13;;
16878;SDS011;8556;52.218;9.884;2023-11-21T06:51:46;34.73;;;16.37;;
16878;SDS011;8556;52.218;9.884;2023-11-21T06:54:15;31.37;;;15.33;;
16878;SDS011;8556;52.218;9.884;2023-11-21T06:56:41;42.67;;;23.53;;
16878;SDS011;8556;52.218;9.884;2023-11-21T06:59:08;39.27;;;20.97;;
16878;SDS011;8556;52.218;9.884;2023-11-21T07:01:35;35.43;;;17.93;;
16878;SDS011;8556;52.218;9.884;2023-11-21T07:04:04;31.90;;;16.23;;
16878;SDS011;8556;52.218;9.884;2023-11-21T07:06:31;31.00;;;14.83;;
16878;SDS011;8556;52.218;9.884;2023-11-21T07:08:58;31.73;;;16.03;;
16878;SDS011;8556;52.218;9.884;2023-11-21T07:11:27;34.50;;;16.80;;
16878;SDS011;8556;52.218;9.884;2023-11-21T07:13:54;33.13;;;16.27;;
16878;SDS011;8556;52.218;9.884;2023-11-21T07:16:21;31.90;;;16.47;;
16878;SDS011;8556;52.218;9.884;2023-11-21T07:18:48;36.70;;;19.17;;
16878;SDS011;8556;52.218;9.884;2023-11-21T07:21:15;31.97;;;16.33;;
16878;SDS011;8556;52.218;9.884;2023-11-21T07:23:43;32.27;;;15.13;;
16878;SDS011;8556;52.218;9.884;2023-11-21T07:26:10;29.27;;;12.03;;
16878;SDS011;8556;52.218;9.884;2023-11-21T07:28:38;9.13;;;4.30;;
16878;SDS011;8556;52.218;9.884;2023-11-21T07:31:05;4.50;;;3.07;;
16878;SDS011;8556;52.218;9.884;2023-11-21T07:33:32;5.03;;;2.53;;
16878;SDS011;8556;52.218;9.884;2023-11-21T07:35:59;3.47;;;2.57;;
16878;SDS011;8556;52.218;9.884;2023-11-21T07:38:26;3.87;;;2.57;;
16878;SDS011;8556;52.218;9.884;2023-11-21T07:40:53;4.87;;;2.97;;
16878;SDS011;8556;52.218;9.884;2023-11-21T07:43:20;3.60;;;2.47;;
16878;SDS011;8556;52.218;9.884;2023-11-21T07:45:48;5.33;;;3.13;;
16878;SDS011;8556;52.218;9.884;2023-11-21T07:48:16;7.90;;;4.27;;
16878;SDS011;8556;52.218;9.884;2023-11-21T07:50:43;7.47;;;4.47;;
16878;SDS011;8556;52.218;9.884;2023-11-21T07:53:11;10.77;;;5.03;;
16878;SDS011;8556;52.218;9.884;2023-11-21T07:55:39;9.33;;;4.70;;
16878;SDS011;8556;52.218;9.884;2023-11-21T07:58:06;8.73;;;4.93;;
16878;SDS011;8556;52.218;9.884;2023-11-21T08:00:33;10.17;;;5.37;;
16878;SDS011;8556;52.218;9.884;2023-11-21T08:03:01;11.83;;;6.03;;
16878;SDS011;8556;52.218;9.884;2023-11-21T08:05:28;10.37;;;5.23;;
16878;SDS011;8556;52.218;9.884;2023-11-21T08:07:55;12.87;;;5.57;;
16878;SDS011;8556;52.218;9.884;2023-11-21T08:10:21;11.47;;;5.10;;
16878;SDS011;8556;52.218;9.884;2023-11-21T08:12:48;10.73;;;5.30;;
16878;SDS011;8556;52.218;9.884;2023-11-21T08:15:16;12.47;;;5.23;;
16878;SDS011;8556;52.218;9.884;2023-11-21T08:17:43;7.43;;;4.13;;
16878;SDS011;8556;52.218;9.884;2023-11-21T08:20:12;11.83;;;4.40;;
16878;SDS011;8556;52.218;9.884;2023-11-21T08:22:41;11.67;;;5.27;;
16878;SDS011;8556;52.218;9.884;2023-11-21T08:25:08;10.70;;;5.80;;
16878;SDS011;8556;52.218;9.884;2023-11-21T08:27:35;12.87;;;5.50;;
16878;SDS011;8556;52.218;9.884;2023-11-21T08:30:02;14.17;;;6.27;;
16878;SDS011;8556;52.218;9.884;2023-11-21T08:32:30;16.60;;;6.90;;
16878;SDS011;8556;52.218;9.884;2023-11-21T08:34:58;16.07;;;7.63;;
16878;SDS011;8556;52.218;9.884;2023-11-21T08:37:26;15.57;;;6.90;;
16878;SDS011;8556;52.218;9.884;2023-11-21T08:39:55;15.97;;;6.87;;
16878;SDS011;8556;52.218;9.884;2023-11-21T08:42:24;21.00;;;8.57;;
16878;SDS011;8556;52.218;9.884;2023-11-21T08:44:54;19.97;;;8.63;;
16878;SDS011;8556;52.218;9.884;2023-11-21T08:47:22;19.90;;;9.63;;
16878;SDS011;8556;52.218;9.884;2023-11-21T08:49:51;17.13;;;7.87;;
16878;SDS011;8556;52.218;9.884;2023-11-21T08:52:18;18.60;;;8.17;;
16878;SDS011;8556;52.218;9.884;2023-11-21T08:54:47;20.73;;;8.17;;
16878;SDS011;8556;52.218;9.884;2023-11-21T08:57:15;19.03;;;9.03;;
16878;SDS011;8556;52.218;9.884;2023-11-21T08:59:42;17.50;;;7.73;;
16878;SDS011;8556;52.218;9.884;2023-11-21T09:02:09;17.77;;;7.50;;
16878;SDS011;8556;52.218;9.884;2023-11-21T09:04:35;17.27;;;6.33;;
16878;SDS011;8556;52.218;9.884;2023-11-21T09:07:03;18.60;;;9.87;;
16878;SDS011;8556;52.218;9.884;2023-11-21T09:09:30;16.30;;;7.57;;
16878;SDS011;8556;52.218;9.884;2023-11-21T09:11:58;17.33;;;7.67;;
16878;SDS011;8556;52.218;9.884;2023-11-21T09:14:26;20.57;;;8.40;;
16878;SDS011;8556;52.218;9.884;2023-11-21T09:16:53;17.80;;;8.60;;
16878;SDS011;8556;52.218;9.884;2023-11-21T09:19:19;18.77;;;7.83;;
16878;SDS011;8556;52.218;9.884;2023-11-21T09:21:46;22.57;;;9.07;;
16878;SDS011;8556;52.218;9.884;2023-11-21T09:24:13;21.20;;;9.33;;
16878;SDS011;8556;52.218;9.884;2023-11-21T09:26:40;25.17;;;11.53;;
16878;SDS011;8556;52.218;9.884;2023-11-21T09:29:08;26.07;;;12.53;;
16878;SDS011;8556;52.218;9.884;2023-11-21T09:31:35;21.70;;;10.10;;
16878;SDS011;8556;52.218;9.884;2023-11-21T09:34:03;25.77;;;11.27;;
16878;SDS011;8556;52.218;9.884;2023-11-21T09:36:31;25.13;;;11.17;;
16878;SDS011;8556;52.218;9.884;2023-11-21T09:38:58;22.20;;;11.20;;
16878;SDS011;8556;52.218;9.884;2023-11-21T09:41:29;23.80;;;11.37;;
16878;SDS011;8556;52.218;9.884;2023-11-21T09:44:04;26.07;;;12.03;;
16878;SDS011;8556;52.218;9.884;2023-11-21T09:46:39;22.43;;;11.10;;
16878;SDS011;8556;52.218;9.884;2023-11-21T09:49:08;21.10;;;10.10;;
16878;SDS011;8556;52.218;9.884;2023-11-21T09:51:37;21.00;;;10.70;;
16878;SDS011;8556;52.218;9.884;2023-11-21T09:54:05;20.87;;;9.40;;
16878;SDS011;8556;52.218;9.884;2023-11-21T09:56:35;19.60;;;9.37;;
16878;SDS011;8556;52.218;9.884;2023-11-21T09:59:02;18.40;;;9.47;;
16878;SDS011;8556;52.218;9.884;2023-11-21T10:01:37;20.73;;;9.57;;
16878;SDS011;8556;52.218;9.884;2023-11-21T10:04:07;16.87;;;8.97;;
16878;SDS011;8556;52.218;9.884;2023-11-21T10:06:37;15.30;;;7.83;;
16878;SDS011;8556;52.218;9.884;2023-11-21T10:09:04;16.43;;;7.87;;
16878;SDS011;8556;52.218;9.884;2023-11-21T10:11:36;12.10;;;6.10;;
16878;SDS011;8556;52.218;9.884;2023-11-21T10:14:06;12.27;;;5.73;;
16878;SDS011;8556;52.218;9.884;2023-11-21T10:16:39;15.93;;;7.83;;
16878;SDS011;8556;52.218;9.884;2023-11-21T10:19:09;15.47;;;7.67;;
16878;SDS011;8556;52.218;9.884;2023-11-21T10:21:39;12.50;;;6.30;;
16878;SDS011;8556;52.218;9.884;2023-11-21T10:24:06;13.30;;;7.17;;
16878;SDS011;8556;52.218;9.884;2023-11-21T10:26:33;11.80;;;5.97;;
16878;SDS011;8556;52.218;9.884;2023-11-21T10:29:02;13.80;;;7.10;;
16878;SDS011;8556;52.218;9.884;2023-11-21T10:31:29;14.10;;;7.80;;
16878;SDS011;8556;52.218;9.884;2023-11-21T10:33:58;14.63;;;7.50;;
16878;SDS011;8556;52.218;9.884;2023-11-21T10:36:40;13.30;;;7.13;;
16878;SDS011;8556;52.218;9.884;2023-11-21T10:39:06;11.87;;;7.27;;
16878;SDS011;8556;52.218;9.884;2023-11-21T10:41:34;11.40;;;6.23;;
16878;SDS011;8556;52.218;9.884;2023-11-21T10:44:01;11.33;;;6.47;;
16878;SDS011;8556;52.218;9.884;2023-11-21T10:46:32;15.77;;;6.87;;
16878;SDS011;8556;52.218;9.884;2023-11-21T10:49:01;10.97;;;6.47;;
16878;SDS011;8556;52.218;9.884;2023-11-21T10:51:28;13.00;;;6.80;;
16878;SDS011;8556;52.218;9.884;2023-11-21T10:53:55;10.63;;;6.57;;
16878;SDS011;8556;52.218;9.884;2023-11-21T10:56:23;13.80;;;6.80;;
16878;SDS011;8556;52.218;9.884;2023-11-21T10:58:52;11.00;;;6.37;;
16878;SDS011;8556;52.218;9.884;2023-11-21T11:01:19;11.33;;;6.03;;
16878;SDS011;8556;52.218;9.884;2023-11-21T11:03:47;12.97;;;6.97;;
16878;SDS011;8556;52.218;9.884;2023-11-21T11:06:16;10.37;;;5.73;;
16878;SDS011;8556;52.218;9.884;2023-11-21T11:08:44;11.23;;;6.07;;
16878;SDS011;8556;52.218;9.884;2023-11-21T11:11:11;13.40;;;6.23;;
16878;SDS011;8556;52.218;9.884;2023-11-21T11:13:39;10.33;;;5.93;;
16878;SDS011;8556;52.218;9.884;2023-11-21T11:16:10;9.43;;;5.37;;
16878;SDS011;8556;52.218;9.884;2023-11-21T11:18:42;9.80;;;5.77;;
16878;SDS011;8556;52.218;9.884;2023-11-21T11:21:15;8.97;;;5.63;;
16878;SDS011;8556;52.218;9.884;2023-11-21T11:23:56;10.77;;;5.77;;
16878;SDS011;8556;52.218;9.884;2023-11-21T11:26:41;9.77;;;5.13;;
16878;SDS011;8556;52.218;9.884;2023-11-21T11:29:14;10.27;;;5.90;;
16878;SDS011;8556;52.218;9.884;2023-11-21T11:31:50;11.57;;;5.83;;
16878;SDS011;8556;52.218;9.884;2023-11-21T11:34:26;10.73;;;5.90;;
16878;SDS011;8556;52.218;9.884;2023-11-21T11:37:01;11.00;;;5.90;;
16878;SDS011;8556;52.218;9.884;2023-11-21T11:39:29;10.10;;;6.10;;
16878;SDS011;8556;52.218;9.884;2023-11-21T11:41:57;10.57;;;6.07;;
16878;SDS011;8556;52.218;9.884;2023-11-21T11:47:16;10.43;;;6.00;;
16878;SDS011;8556;52.218;9.884;2023-11-21T11:49:55;11.70;;;6.27;;
16878;SDS011;8556;52.218;9.884;2023-11-21T11:55:11;10.83;;;6.43;;
16878;SDS011;8556;52.218;9.884;2023-11-21T11:57:39;12.23;;;6.17;;
16878;SDS011;8556;52.218;9.884;2023-11-21T12:00:08;11.60;;;6.20;;
16878;SDS011;8556;52.218;9.884;2023-11-21T12:02:44;10.57;;;5.80;;
16878;SDS011;8556;52.218;9.884;2023-11-21T12:05:13;10.73;;;6.47;;
16878;SDS011;8556;52.218;9.884;2023-11-21T12:07:50;10.53;;;5.47;;
16878;SDS011;8556;52.218;9.884;2023-11-21T12:10:19;13.60;;;6.50;;
16878;SDS011;8556;52.218;9.884;2023-11-21T12:12:50;11.27;;;5.37;;
16878;SDS011;8556;52.218;9.884;2023-11-21T12:15:18;11.87;;;6.80;;
16878;SDS011;8556;52.218;9.884;2023-11-21T12:17:46;10.10;;;5.70;;
16878;SDS011;8556;52.218;9.884;2023-11-21T12:20:15;10.87;;;6.00;;
16878;SDS011;8556;52.218;9.884;2023-11-21T12:22:45;10.60;;;6.07;;
16878;SDS011;8556;52.218;9.884;2023-11-21T12:25:18;11.27;;;6.00;;
16878;SDS011;8556;52.218;9.884;2023-11-21T12:27:46;10.53;;;6.00;;
16878;SDS011;8556;52.218;9.884;2023-11-21T12:30:14;12.80;;;6.60;;
16878;SDS011;8556;52.218;9.884;2023-11-21T12:32:43;9.73;;;5.87;;
16878;SDS011;8556;52.218;9.884;2023-11-21T12:35:12;11.00;;;5.60;;
16878;SDS011;8556;52.218;9.884;2023-11-21T12:37:41;8.63;;;5.30;;
16878;SDS011;8556;52.218;9.884;2023-11-21T12:40:09;10.40;;;6.17;;
16878;SDS011;8556;52.218;9.884;2023-11-21T12:42:40;9.73;;;5.70;;
16878;SDS011;8556;52.218;9.884;2023-11-21T12:45:08;10.03;;;5.57;;
16878;SDS011;8556;52.218;9.884;2023-11-21T12:47:41;12.07;;;6.37;;
16878;SDS011;8556;52.218;9.884;2023-11-21T12:50:08;9.77;;;5.67;;
16878;SDS011;8556;52.218;9.884;2023-11-21T12:52:39;11.87;;;5.97;;
16878;SDS011;8556;52.218;9.884;2023-11-21T12:55:13;10.80;;;6.07;;
16878;SDS011;8556;52.218;9.884;2023-11-21T12:57:55;9.70;;;5.50;;
16878;SDS011;8556;52.218;9.884;2023-11-21T13:00:28;11.70;;;6.47;;
16878;SDS011;8556;52.218;9.884;2023-11-21T13:02:59;13.37;;;6.23;;
16878;SDS011;8556;52.218;9.884;2023-11-21T13:05:26;12.30;;;6.13;;
16878;SDS011;8556;52.218;9.884;2023-11-21T13:07:53;9.50;;;5.50;;
16878;SDS011;8556;52.218;9.884;2023-11-21T13:10:22;11.77;;;5.93;;
16878;SDS011;8556;52.218;9.884;2023-11-21T13:12:56;10.13;;;6.50;;
16878;SDS011;8556;52.218;9.884;2023-11-21T13:15:24;11.80;;;6.23;;
16878;SDS011;8556;52.218;9.884;2023-11-21T13:17:52;10.30;;;6.00;;
16878;SDS011;8556;52.218;9.884;2023-11-21T13:20:21;9.00;;;5.50;;
16878;SDS011;8556;52.218;9.884;2023-11-21T13:22:49;9.03;;;5.37;;
16878;SDS011;8556;52.218;9.884;2023-11-21T13:25:19;11.40;;;5.53;;
16878;SDS011;8556;52.218;9.884;2023-11-21T13:27:46;8.73;;;5.30;;
16878;SDS011;8556;52.218;9.884;2023-11-21T13:30:15;7.93;;;5.20;;
16878;SDS011;8556;52.218;9.884;2023-11-21T13:32:43;7.87;;;5.20;;
16878;SDS011;8556;52.218;9.884;2023-11-21T13:35:11;7.23;;;5.10;;
16878;SDS011;8556;52.218;9.884;2023-11-21T13:37:49;8.87;;;5.50;;
16878;SDS011;8556;52.218;9.884;2023-11-21T13:40:21;7.80;;;4.90;;
16878;SDS011;8556;52.218;9.884;2023-11-21T13:42:51;8.90;;;5.50;;
16878;SDS011;8556;52.218;9.884;2023-11-21T13:45:21;9.13;;;5.57;;
16878;SDS011;8556;52.218;9.884;2023-11-21T13:47:50;9.83;;;5.50;;
16878;SDS011;8556;52.218;9.884;2023-11-21T13:50:17;8.07;;;5.57;;
16878;SDS011;8556;52.218;9.884;2023-11-21T13:52:51;9.17;;;5.77;;
16878;SDS011;8556;52.218;9.884;2023-11-21T13:55:19;9.70;;;5.53;;
16878;SDS011;8556;52.218;9.884;2023-11-21T13:57:49;8.53;;;5.20;;
16878;SDS011;8556;52.218;9.884;2023-11-21T14:00:17;8.90;;;5.50;;
16878;SDS011;8556;52.218;9.884;2023-11-21T14:03:11;10.30;;;5.17;;
16878;SDS011;8556;52.218;9.884;2023-11-21T14:05:45;9.63;;;5.40;;
16878;SDS011;8556;52.218;9.884;2023-11-21T14:08:16;8.10;;;5.00;;
16878;SDS011;8556;52.218;9.884;2023-11-21T14:10:45;8.33;;;5.50;;
16878;SDS011;8556;52.218;9.884;2023-11-21T14:13:16;8.60;;;5.40;;
16878;SDS011;8556;52.218;9.884;2023-11-21T14:15:45;10.20;;;5.50;;
16878;SDS011;8556;52.218;9.884;2023-11-21T14:18:17;6.43;;;4.20;;
16878;SDS011;8556;52.218;9.884;2023-11-21T14:20:52;7.50;;;4.67;;
16878;SDS011;8556;52.218;9.884;2023-11-21T14:23:19;6.73;;;4.57;;
16878;SDS011;8556;52.218;9.884;2023-11-21T14:25:48;7.83;;;4.70;;
16878;SDS011;8556;52.218;9.884;2023-11-21T14:28:17;10.10;;;4.70;;
16878;SDS011;8556;52.218;9.884;2023-11-21T14:30:44;7.60;;;4.57;;
16878;SDS011;8556;52.218;9.884;2023-11-21T14:33:12;7.80;;;4.40;;
16878;SDS011;8556;52.218;9.884;2023-11-21T14:35:42;7.23;;;4.23;;
16878;SDS011;8556;52.218;9.884;2023-11-21T14:38:09;6.40;;;4.20;;
16878;SDS011;8556;52.218;9.884;2023-11-21T14:40:40;6.60;;;4.13;;
16878;SDS011;8556;52.218;9.884;2023-11-21T14:43:07;6.63;;;4.73;;
16878;SDS011;8556;52.218;9.884;2023-11-21T14:45:34;7.10;;;4.37;;
16878;SDS011;8556;52.218;9.884;2023-11-21T14:48:03;5.30;;;3.80;;
16878;SDS011;8556;52.218;9.884;2023-11-21T14:50:41;5.90;;;3.90;;
16878;SDS011;8556;52.218;9.884;2023-11-21T14:53:36;5.53;;;4.20;;
16878;SDS011;8556;52.218;9.884;2023-11-21T14:56:08;8.30;;;4.10;;